Forester Chapel, Alabama
Current Conditions -  °F | °C
As of 5:15 AM on Wednesday 22 Oct 2014 (Local Time) from KLGC Reporting Station
Clear Clear  
Wind Chill: 54°   Ceiling: Unl
Heat Index: 54°   Visibility: 10mi
Dew Point: 48°   Wind: 3mph
Humidity: 81%   Direction: 350°N
Pressure: 30.07"   Gusts: NA
Location:  33.1661°N, 85.5111°W
Report Text: KLGC 221015Z AUTO 35003KT 10SM CLR 12/09 A3007 RMK AO2 T01230091
Loading
Personal Weather Stations






























Interactive Weather Map
Tropical Storm Tracking
New forecast layout! Learn more

10-Day Weather Forecast

Advertisements
Track Severe Weather on mobile